KHAI

Three Rivers Municipal Dr Haines Airport

Three Rivers, Michigan, USA
METAR KHAI 200715Z AUTO 19003KT 1SM +RA SCT002 BKN021 OVC030 13/13 A2992 RMK AO2 T01300130
Observed Flight Rules
Feb-20 @ 07:15 UTC (18 minutes ago) Instrument Flight Rules
Wind Visibility Clouds Conditions
190° at 3 knots 1 miles
  • Scattered at 200' AGL
  • Broken at 2,100' AGL
  • Overcast at 3,000' AGL
  • Heavy Rain
Temperatures Readings
Current 13°C / 55°F
Dewpoint 13°C / 55°F
Humidity 100%
Altimeter 29.92" Hg
Pressure 1013 hPa
Elevation 251
METAR KHAI 200715Z AUTO 19003KT 1SM +RA SCT002 BKN021 OVC030 13/13 A2992 RMK AO2 T01300130
Observed Flight Rules
Feb-20 @ 07:15 UTC
(18 minutes ago)
IFR
Wind Visibility
190° at 3 knots 1 miles
Clouds
  • Scattered at 200' AGL
  • Broken at 2,100' AGL
  • Overcast at 3,000' AGL
Conditions
  • Heavy Rain
Temperature Dewpoint
13°C / 55°F 13°C / 55°F
Humidity Altimeter Pressure
100% 29.92" Hg 1013 hPa